Time;durP1;ratioP1;P1;durP2;ratioP2;P2;SDS_P1;SDS_P2;PMS_P1;PMS_P2;Temp;Humidity;BMP_temperature;BMP_pressure;BME280_temperature;BME280_humidity;BME280_pressure;Samples;Min_cycle;Max_cycle;Signal;HPM_P1;HPM_P2
2022/04/18 00:00:01;;;;;;;13.93;9.68;;;;;;;;;;5044508;28;20052;-61
2022/04/18 00:02:27;;;;;;;14.60;9.25;;;;;;;;;;5040731;28;20047;-62
2022/04/18 00:04:53;;;;;;;14.65;9.40;;;;;;;;;;5041868;28;20032;-61
2022/04/18 00:07:19;;;;;;;14.63;9.30;;;;;;;;;;5028693;28;20037;-61
2022/04/18 00:09:45;;;;;;;14.13;9.73;;;;;;;;;;5028121;28;20036;-61
2022/04/18 00:12:12;;;;;;;14.38;9.50;;;;;;;;;;5059885;28;20037;-62
2022/04/18 00:14:38;;;;;;;12.80;8.63;;;;;;;;;;5061942;28;20127;-60
2022/04/18 00:17:09;;;;;;;14.75;9.77;;;;;;;;;;5062871;28;20040;-61
2022/04/18 00:19:35;;;;;;;12.77;9.18;;;;;;;;;;5038166;28;20129;-63
2022/04/18 00:22:01;;;;;;;12.68;9.45;;;;;;;;;;5041026;28;20379;-63
2022/04/18 00:24:27;;;;;;;13.75;9.60;;;;;;;;;;5063721;28;20154;-62
2022/04/18 00:26:53;;;;;;;13.70;9.50;;;;;;;;;;5062757;28;20451;-63
2022/04/18 00:29:19;;;;;;;12.82;8.68;;;;;;;;;;5038663;28;20047;-62
2022/04/18 00:31:46;;;;;;;16.52;10.48;;;;;;;;;;5062380;28;20106;-63
2022/04/18 00:34:14;;;;;;;14.93;10.18;;;;;;;;;;5026468;28;20437;-62
2022/04/18 00:36:40;;;;;;;17.05;9.55;;;;;;;;;;5029956;28;20565;-61
2022/04/18 00:39:06;;;;;;;12.30;9.38;;;;;;;;;;5063401;28;20126;-63
2022/04/18 00:41:32;;;;;;;13.75;10.15;;;;;;;;;;5047940;28;20491;-63
2022/04/18 00:43:58;;;;;;;14.68;9.88;;;;;;;;;;5070304;28;20052;-62
2022/04/18 00:46:25;;;;;;;17.77;10.30;;;;;;;;;;5038423;28;20045;-61
2022/04/18 00:48:51;;;;;;;15.77;10.32;;;;;;;;;;5022469;28;20041;-63
2022/04/18 00:51:21;;;;;;;13.80;10.20;;;;;;;;;;5061509;28;20041;-62
2022/04/18 00:53:47;;;;;;;17.45;10.95;;;;;;;;;;5063092;28;20041;-62
2022/04/18 00:56:16;;;;;;;16.50;10.40;;;;;;;;;;5040400;28;20457;-63
2022/04/18 00:58:42;;;;;;;15.43;10.57;;;;;;;;;;5037512;28;20475;-62
2022/04/18 01:01:09;;;;;;;16.10;10.63;;;;;;;;;;5033869;28;20371;-62
2022/04/18 01:03:35;;;;;;;15.38;10.07;;;;;;;;;;5039300;28;20044;-62
2022/04/18 01:06:02;;;;;;;14.65;10.80;;;;;;;;;;5039840;28;20763;-62
2022/04/18 01:08:28;;;;;;;16.13;10.70;;;;;;;;;;5036561;28;20601;-62
2022/04/18 01:10:55;;;;;;;17.88;11.13;;;;;;;;;;5040275;28;20115;-63
2022/04/18 01:13:21;;;;;;;16.60;11.13;;;;;;;;;;5063131;28;20114;-62
2022/04/18 01:15:54;;;;;;;16.75;10.85;;;;;;;;;;5029863;28;20041;-63
2022/04/18 01:18:20;;;;;;;15.20;10.43;;;;;;;;;;5061466;28;20045;-63
2022/04/18 01:20:46;;;;;;;18.63;10.90;;;;;;;;;;5063308;28;20069;-62
2022/04/18 01:23:12;;;;;;;16.13;11.05;;;;;;;;;;5037946;28;20053;-62
2022/04/18 01:31:09;;;;;;;13.60;9.63;;;;;;;;;;5038600;28;20038;-62
2022/04/18 01:33:35;;;;;;;14.00;10.88;;;;;;;;;;5036090;28;20144;-63
2022/04/18 01:36:01;;;;;;;15.23;10.85;;;;;;;;;;5028242;28;20068;-62
2022/04/18 01:38:28;;;;;;;16.10;11.65;;;;;;;;;;5059567;28;20044;-62
2022/04/18 01:40:54;;;;;;;15.88;10.90;;;;;;;;;;5037323;28;20088;-63
2022/04/18 01:43:20;;;;;;;16.73;11.10;;;;;;;;;;5037749;28;20159;-62
2022/04/18 01:45:46;;;;;;;17.05;10.40;;;;;;;;;;5027587;28;20626;-63
2022/04/18 01:48:12;;;;;;;18.17;11.07;;;;;;;;;;5032788;28;20041;-63
2022/04/18 01:50:39;;;;;;;15.13;10.45;;;;;;;;;;5041190;28;20044;-61
2022/04/18 01:53:05;;;;;;;16.33;11.27;;;;;;;;;;5040035;28;20040;-60
2022/04/18 01:55:31;;;;;;;16.88;10.85;;;;;;;;;;5062104;28;20049;-62
2022/04/18 01:57:57;;;;;;;16.40;10.43;;;;;;;;;;5039404;28;20572;-61
2022/04/18 02:00:23;;;;;;;18.98;11.32;;;;;;;;;;5043110;28;20440;-61
2022/04/18 02:02:49;;;;;;;15.43;10.05;;;;;;;;;;5041032;28;20041;-62
2022/04/18 02:05:16;;;;;;;13.50;10.20;;;;;;;;;;5038238;28;20133;-62
2022/04/18 02:07:42;;;;;;;15.20;10.52;;;;;;;;;;5017702;28;20036;-63
2022/04/18 02:10:08;;;;;;;14.18;9.95;;;;;;;;;;5035467;28;20034;-62
2022/04/18 02:12:34;;;;;;;13.25;9.32;;;;;;;;;;5033439;28;20460;-62
2022/04/18 02:15:00;;;;;;;14.18;9.88;;;;;;;;;;5038421;28;20051;-62
2022/04/18 02:17:27;;;;;;;14.38;10.68;;;;;;;;;;5035832;28;20059;-62
2022/04/18 02:19:53;;;;;;;15.55;10.93;;;;;;;;;;5027607;28;20029;-62
2022/04/18 02:22:19;;;;;;;15.18;10.32;;;;;;;;;;5028141;28;20521;-63
2022/04/18 02:24:45;;;;;;;14.27;10.38;;;;;;;;;;5060806;28;20120;-63
2022/04/18 02:27:11;;;;;;;14.02;9.20;;;;;;;;;;5061054;28;20542;-63
2022/04/18 02:29:37;;;;;;;15.00;9.68;;;;;;;;;;5036487;28;20452;-62
2022/04/18 02:34:49;;;;;;;14.52;9.73;;;;;;;;;;5026815;28;138836;-60
2022/04/18 02:37:15;;;;;;;15.98;9.35;;;;;;;;;;5060757;28;20065;-61
2022/04/18 02:39:41;;;;;;;13.07;9.93;;;;;;;;;;5029619;28;20041;-61
2022/04/18 02:42:08;;;;;;;14.70;9.95;;;;;;;;;;5064368;28;20372;-61
2022/04/18 02:44:34;;;;;;;14.07;9.55;;;;;;;;;;5040268;28;20433;-61
2022/04/18 02:47:00;;;;;;;13.65;9.60;;;;;;;;;;5040032;28;20059;-62
2022/04/18 02:49:26;;;;;;;16.50;9.05;;;;;;;;;;5040300;28;20040;-61
2022/04/18 02:51:52;;;;;;;13.57;8.93;;;;;;;;;;5042816;28;20037;-63
2022/04/18 02:54:18;;;;;;;13.10;9.05;;;;;;;;;;5038842;28;20580;-63
2022/04/18 02:56:44;;;;;;;15.88;10.00;;;;;;;;;;5019539;28;20581;-63
2022/04/18 02:59:10;;;;;;;13.13;9.43;;;;;;;;;;5034812;28;20049;-63
2022/04/18 03:01:36;;;;;;;13.60;9.98;;;;;;;;;;5042278;28;20045;-62
2022/04/18 03:04:03;;;;;;;15.60;10.30;;;;;;;;;;5035050;28;20037;-63
2022/04/18 03:06:29;;;;;;;14.93;8.68;;;;;;;;;;5036157;28;20036;-61
2022/04/18 03:08:55;;;;;;;15.75;10.20;;;;;;;;;;5067704;28;20057;-63
2022/04/18 03:11:21;;;;;;;15.55;10.52;;;;;;;;;;5059983;28;20033;-63
2022/04/18 03:13:47;;;;;;;15.40;9.77;;;;;;;;;;5035899;28;20503;-63
2022/04/18 03:16:14;;;;;;;15.85;10.25;;;;;;;;;;5027976;28;20383;-62
2022/04/18 03:18:40;;;;;;;14.77;10.18;;;;;;;;;;5058944;28;20187;-63
2022/04/18 03:21:07;;;;;;;15.30;10.52;;;;;;;;;;5073173;28;20081;-62
2022/04/18 03:23:33;;;;;;;16.73;9.70;;;;;;;;;;5060033;28;20047;-63
2022/04/18 03:25:59;;;;;;;16.27;9.57;;;;;;;;;;5037918;28;20041;-62
2022/04/18 03:28:25;;;;;;;14.70;10.15;;;;;;;;;;5060163;28;20040;-62
2022/04/18 03:30:52;;;;;;;14.60;9.35;;;;;;;;;;5034403;28;20037;-62
2022/04/18 03:33:18;;;;;;;13.60;9.48;;;;;;;;;;5058105;28;20064;-63
2022/04/18 03:41:14;;;;;;;15.95;9.98;;;;;;;;;;5033333;28;20144;-63
2022/04/18 03:43:40;;;;;;;13.63;9.85;;;;;;;;;;5036216;28;20114;-62
2022/04/18 03:46:06;;;;;;;15.38;10.82;;;;;;;;;;5061868;28;20513;-64
2022/04/18 03:48:33;;;;;;;13.98;9.32;;;;;;;;;;5061160;28;20029;-62
2022/04/18 03:50:59;;;;;;;15.60;10.43;;;;;;;;;;5037392;28;21311;-63
2022/04/18 03:53:25;;;;;;;16.20;10.63;;;;;;;;;;5052682;28;20049;-62
2022/04/18 03:55:51;;;;;;;16.25;11.80;;;;;;;;;;5069843;28;20052;-61
2022/04/18 03:58:17;;;;;;;15.02;10.95;;;;;;;;;;5040717;28;20507;-61
2022/04/18 04:00:43;;;;;;;15.07;11.43;;;;;;;;;;5035678;28;20128;-60
2022/04/18 04:03:10;;;;;;;16.35;11.20;;;;;;;;;;5037346;28;20041;-60
2022/04/18 04:05:37;;;;;;;15.90;11.70;;;;;;;;;;5033076;28;20160;-61
2022/04/18 04:08:03;;;;;;;13.52;10.52;;;;;;;;;;5039377;28;20033;-60
2022/04/18 04:10:29;;;;;;;15.85;10.85;;;;;;;;;;5035982;28;20052;-61
2022/04/18 04:12:55;;;;;;;18.13;11.00;;;;;;;;;;5061105;28;20053;-61
2022/04/18 04:15:21;;;;;;;17.15;11.77;;;;;;;;;;5034864;28;20124;-61
2022/04/18 04:17:47;;;;;;;15.30;10.15;;;;;;;;;;5034575;28;20049;-61
2022/04/18 04:20:14;;;;;;;18.10;11.95;;;;;;;;;;5060906;28;20029;-60
2022/04/18 04:22:51;;;;;;;16.92;11.48;;;;;;;;;;5027835;28;20442;-62
2022/04/18 04:25:17;;;;;;;16.95;11.90;;;;;;;;;;5041467;28;20052;-62
2022/04/18 04:27:44;;;;;;;18.85;12.02;;;;;;;;;;5033454;28;20202;-63
2022/04/18 04:30:10;;;;;;;19.77;12.10;;;;;;;;;;5018976;28;20652;-63
2022/04/18 04:32:36;;;;;;;17.92;11.82;;;;;;;;;;5032776;28;20037;-61
2022/04/18 04:35:02;;;;;;;17.00;11.63;;;;;;;;;;5068510;28;20140;-62
2022/04/18 04:37:28;;;;;;;20.67;11.82;;;;;;;;;;5032402;28;20095;-62
2022/04/18 04:39:54;;;;;;;17.92;12.57;;;;;;;;;;5058438;28;20099;-62
2022/04/18 04:42:21;;;;;;;20.75;12.88;;;;;;;;;;5059654;28;20037;-62
2022/04/18 04:44:47;;;;;;;17.77;11.75;;;;;;;;;;5018863;28;20049;-63
2022/04/18 04:47:13;;;;;;;19.40;12.52;;;;;;;;;;5037314;28;20041;-63
2022/04/18 04:49:39;;;;;;;19.98;13.48;;;;;;;;;;5026336;28;20047;-63
2022/04/18 04:52:06;;;;;;;19.20;12.40;;;;;;;;;;5068922;28;20409;-62
2022/04/18 04:54:32;;;;;;;16.77;12.82;;;;;;;;;;5060491;28;20045;-62
2022/04/18 04:56:58;;;;;;;18.85;12.18;;;;;;;;;;5037123;28;20045;-63
2022/04/18 04:59:27;;;;;;;19.13;12.60;;;;;;;;;;5036808;28;20064;-62
2022/04/18 05:01:53;;;;;;;18.50;12.70;;;;;;;;;;5035187;28;20037;-62
2022/04/18 05:04:22;;;;;;;16.77;11.50;;;;;;;;;;5058555;28;20064;-62
2022/04/18 05:06:48;;;;;;;19.98;12.23;;;;;;;;;;5035750;28;20048;-63
2022/04/18 05:09:15;;;;;;;18.13;12.98;;;;;;;;;;5063660;28;20128;-64
2022/04/18 05:11:41;;;;;;;17.83;12.77;;;;;;;;;;5040270;28;20203;-62
2022/04/18 05:14:07;;;;;;;17.75;11.75;;;;;;;;;;5063971;28;20110;-64
2022/04/18 05:16:33;;;;;;;17.10;12.30;;;;;;;;;;5064550;28;20071;-63
2022/04/18 05:18:59;;;;;;;19.08;12.70;;;;;;;;;;5072316;28;20514;-63
2022/04/18 05:21:25;;;;;;;17.63;12.93;;;;;;;;;;5042254;28;20502;-62
2022/04/18 05:23:51;;;;;;;20.08;12.25;;;;;;;;;;5039545;28;20036;-62
2022/04/18 05:26:17;;;;;;;18.88;12.38;;;;;;;;;;5033428;28;20118;-64
2022/04/18 05:28:43;;;;;;;20.38;13.90;;;;;;;;;;5062151;28;20037;-63
2022/04/18 05:31:09;;;;;;;17.83;12.85;;;;;;;;;;5029403;28;20045;-63
2022/04/18 05:33:35;;;;;;;19.30;13.43;;;;;;;;;;5029187;28;20116;-62
2022/04/18 05:36:01;;;;;;;17.80;12.55;;;;;;;;;;5040097;28;20049;-63
2022/04/18 05:38:27;;;;;;;20.30;13.63;;;;;;;;;;5039514;28;20037;-63
2022/04/18 05:40:54;;;;;;;18.95;12.93;;;;;;;;;;5063371;28;20459;-64
2022/04/18 05:43:20;;;;;;;18.02;11.95;;;;;;;;;;5038765;28;20044;-62
2022/04/18 05:45:50;;;;;;;18.35;12.65;;;;;;;;;;5072968;28;20416;-64
2022/04/18 05:48:16;;;;;;;16.63;12.40;;;;;;;;;;5039233;28;20447;-62
2022/04/18 05:50:45;;;;;;;16.30;11.68;;;;;;;;;;5063340;28;20325;-63
2022/04/18 05:53:12;;;;;;;14.73;11.13;;;;;;;;;;5035697;28;20114;-63
2022/04/18 05:55:38;;;;;;;15.60;10.63;;;;;;;;;;5041551;28;20455;-62
2022/04/18 05:58:04;;;;;;;14.90;10.98;;;;;;;;;;5037088;28;20049;-62
2022/04/18 06:00:34;;;;;;;16.63;11.05;;;;;;;;;;5029197;28;20157;-64
2022/04/18 06:03:01;;;;;;;16.85;12.10;;;;;;;;;;5062087;28;20049;-63
2022/04/18 06:05:27;;;;;;;17.50;11.60;;;;;;;;;;5061068;28;20045;-63
2022/04/18 06:07:54;;;;;;;17.67;11.27;;;;;;;;;;5038949;28;20116;-64
2022/04/18 06:10:20;;;;;;;15.75;10.43;;;;;;;;;;5063689;28;20123;-63
2022/04/18 06:12:46;;;;;;;17.10;11.48;;;;;;;;;;5036844;28;20550;-64
2022/04/18 06:15:12;;;;;;;19.92;11.45;;;;;;;;;;5060648;28;20037;-62
2022/04/18 06:17:38;;;;;;;18.08;11.05;;;;;;;;;;5068086;28;20040;-62
2022/04/18 06:20:04;;;;;;;16.58;9.90;;;;;;;;;;5020776;28;20087;-63
2022/04/18 06:22:31;;;;;;;14.85;9.30;;;;;;;;;;5034111;28;20033;-62
2022/04/18 06:24:57;;;;;;;13.38;9.85;;;;;;;;;;5034986;28;20045;-64
2022/04/18 06:27:23;;;;;;;12.50;9.68;;;;;;;;;;5036843;28;20033;-62
2022/04/18 06:29:49;;;;;;;12.18;9.60;;;;;;;;;;5035862;28;20128;-62
2022/04/18 06:32:15;;;;;;;15.23;10.13;;;;;;;;;;5035351;28;20455;-63
2022/04/18 06:34:41;;;;;;;12.18;9.55;;;;;;;;;;5056663;28;20109;-64
2022/04/18 06:37:08;;;;;;;13.48;9.38;;;;;;;;;;5037508;28;20140;-63
2022/04/18 06:39:36;;;;;;;11.75;9.13;;;;;;;;;;5061212;28;20514;-62
2022/04/18 06:42:03;;;;;;;11.35;9.00;;;;;;;;;;5032256;28;20071;-62
2022/04/18 06:44:29;;;;;;;13.80;8.90;;;;;;;;;;5069935;28;20401;-63
2022/04/18 06:46:55;;;;;;;12.45;9.45;;;;;;;;;;5018156;28;20060;-63
2022/04/18 06:49:21;;;;;;;10.68;8.43;;;;;;;;;;5028532;28;20042;-63
2022/04/18 06:51:47;;;;;;;11.18;8.80;;;;;;;;;;5027914;28;20301;-63
2022/04/18 06:54:13;;;;;;;10.55;8.50;;;;;;;;;;5035698;28;20052;-63
2022/04/18 06:59:24;;;;;;;10.48;8.68;;;;;;;;;;5036576;28;20045;-63
2022/04/18 07:01:50;;;;;;;10.20;8.43;;;;;;;;;;5035235;28;20564;-63
2022/04/18 07:04:17;;;;;;;9.55;8.55;;;;;;;;;;5037370;28;20045;-63
2022/04/18 07:06:43;;;;;;;9.38;8.23;;;;;;;;;;5035877;28;20045;-63
2022/04/18 07:09:10;;;;;;;10.45;8.30;;;;;;;;;;5059773;28;20041;-63
2022/04/18 07:11:36;;;;;;;11.02;8.60;;;;;;;;;;5028249;28;20511;-62
2022/04/18 07:14:02;;;;;;;9.18;7.72;;;;;;;;;;5027681;28;20341;-63
2022/04/18 07:16:30;;;;;;;10.85;8.70;;;;;;;;;;5040621;28;20124;-63
2022/04/18 07:18:57;;;;;;;9.05;8.15;;;;;;;;;;5032875;28;20132;-63
2022/04/18 07:21:23;;;;;;;10.25;7.90;;;;;;;;;;5037629;28;20110;-64
2022/04/18 07:23:50;;;;;;;11.65;8.68;;;;;;;;;;5042335;28;20049;-62
2022/04/18 07:26:16;;;;;;;13.18;8.88;;;;;;;;;;5039707;28;20369;-63
2022/04/18 07:28:42;;;;;;;13.77;9.75;;;;;;;;;;5040843;28;20091;-63
2022/04/18 07:31:08;;;;;;;12.25;9.25;;;;;;;;;;5034105;28;20087;-61
2022/04/18 07:33:34;;;;;;;16.27;9.77;;;;;;;;;;5070897;28;20049;-62
2022/04/18 07:36:01;;;;;;;15.45;9.70;;;;;;;;;;5020377;28;20491;-62
2022/04/18 07:41:12;;;;;;;15.07;9.68;;;;;;;;;;5041170;28;20052;-61
2022/04/18 07:43:38;;;;;;;14.15;9.98;;;;;;;;;;5027954;28;20053;-62
2022/04/18 07:46:04;;;;;;;14.70;9.43;;;;;;;;;;5059274;28;20044;-62
2022/04/18 07:48:31;;;;;;;12.30;8.70;;;;;;;;;;5037051;28;20113;-62
2022/04/18 07:53:43;;;;;;;10.70;8.75;;;;;;;;;;5034809;28;20107;-62
2022/04/18 07:56:09;;;;;;;11.77;8.90;;;;;;;;;;5035033;28;20542;-62
2022/04/18 07:58:35;;;;;;;11.40;8.40;;;;;;;;;;5035066;28;20045;-62
2022/04/18 08:01:02;;;;;;;10.02;8.27;;;;;;;;;;5034036;28;20430;-62
2022/04/18 08:03:28;;;;;;;11.80;7.97;;;;;;;;;;5030791;28;20372;-61
2022/04/18 08:05:59;;;;;;;9.02;7.95;;;;;;;;;;5058309;28;20069;-62
2022/04/18 08:08:25;;;;;;;10.52;8.70;;;;;;;;;;5031623;28;20394;-61
2022/04/18 08:10:51;;;;;;;9.10;8.20;;;;;;;;;;5061730;28;20052;-62
2022/04/18 08:13:17;;;;;;;10.10;7.88;;;;;;;;;;5060743;28;20122;-63
2022/04/18 08:15:43;;;;;;;10.02;7.75;;;;;;;;;;5026838;28;20041;-63
2022/04/18 08:18:09;;;;;;;10.57;7.85;;;;;;;;;;5057803;28;20078;-63
2022/04/18 08:20:35;;;;;;;9.68;7.95;;;;;;;;;;5071017;28;20034;-63
2022/04/18 08:23:01;;;;;;;9.55;8.43;;;;;;;;;;5037596;28;20087;-63
2022/04/18 08:25:27;;;;;;;9.48;7.55;;;;;;;;;;5006504;28;20037;-64
2022/04/18 08:27:54;;;;;;;10.88;7.68;;;;;;;;;;5011094;28;20048;-63
2022/04/18 08:30:20;;;;;;;10.07;7.85;;;;;;;;;;5030234;28;20443;-63
2022/04/18 08:32:46;;;;;;;9.50;7.82;;;;;;;;;;5028832;28;20553;-61
2022/04/18 08:35:12;;;;;;;9.38;7.40;;;;;;;;;;5027110;28;20062;-63
2022/04/18 08:37:38;;;;;;;10.90;6.90;;;;;;;;;;5016395;28;20479;-63
2022/04/18 08:40:05;;;;;;;7.45;6.63;;;;;;;;;;5034041;28;20369;-63
2022/04/18 08:42:34;;;;;;;7.53;6.60;;;;;;;;;;5024868;28;20518;-63
2022/04/18 08:45:01;;;;;;;7.00;6.30;;;;;;;;;;5041262;28;20041;-62
2022/04/18 08:52:57;;;;;;;6.38;5.07;;;;;;;;;;5065373;28;20394;-63
2022/04/18 08:55:23;;;;;;;5.93;5.35;;;;;;;;;;5044199;28;20077;-64
2022/04/18 08:57:49;;;;;;;6.15;5.25;;;;;;;;;;5042375;28;20120;-63
2022/04/18 09:00:16;;;;;;;5.25;4.72;;;;;;;;;;5062761;28;20099;-63
2022/04/18 09:02:48;;;;;;;6.03;5.20;;;;;;;;;;5038757;28;20049;-63
2022/04/18 09:05:14;;;;;;;6.70;5.13;;;;;;;;;;5042277;28;20046;-63
2022/04/18 09:07:44;;;;;;;5.55;4.82;;;;;;;;;;5039690;28;20039;-62
2022/04/18 09:10:11;;;;;;;8.10;5.25;;;;;;;;;;5039330;28;20042;-63
2022/04/18 09:12:42;;;;;;;6.45;4.70;;;;;;;;;;5033527;28;20048;-62
2022/04/18 09:15:09;;;;;;;6.30;4.93;;;;;;;;;;5065148;28;20056;-63
2022/04/18 09:17:36;;;;;;;7.47;5.25;;;;;;;;;;5039014;28;20049;-63
2022/04/18 09:20:13;;;;;;;6.38;4.85;;;;;;;;;;5016240;28;20040;-63
2022/04/18 09:22:46;;;;;;;6.78;5.60;;;;;;;;;;5020217;28;20068;-62
2022/04/18 09:25:12;;;;;;;6.03;5.43;;;;;;;;;;5037481;28;20080;-63
2022/04/18 09:27:40;;;;;;;5.90;5.38;;;;;;;;;;5061637;28;20738;-62
2022/04/18 09:30:07;;;;;;;7.03;5.60;;;;;;;;;;5030110;28;20045;-63
2022/04/18 09:32:33;;;;;;;7.03;5.45;;;;;;;;;;5061487;28;20388;-64
2022/04/18 09:35:00;;;;;;;6.03;5.05;;;;;;;;;;5029718;28;20099;-63
2022/04/18 09:37:28;;;;;;;6.68;5.55;;;;;;;;;;5031454;28;20045;-63
2022/04/18 09:39:55;;;;;;;7.00;5.38;;;;;;;;;;5032082;28;20067;-63
2022/04/18 09:42:22;;;;;;;5.95;5.38;;;;;;;;;;5047094;28;20047;-63
2022/04/18 09:44:49;;;;;;;8.25;5.38;;;;;;;;;;5031894;28;20041;-63
2022/04/18 09:47:19;;;;;;;5.72;5.15;;;;;;;;;;5063662;28;20128;-63
2022/04/18 09:49:45;;;;;;;6.13;5.20;;;;;;;;;;5080388;28;20069;-62
2022/04/18 09:52:12;;;;;;;7.80;5.40;;;;;;;;;;5063202;28;20041;-62
2022/04/18 09:54:46;;;;;;;7.57;5.10;;;;;;;;;;5031754;28;20095;-64
2022/04/18 09:57:13;;;;;;;6.82;5.00;;;;;;;;;;5080457;28;20471;-62
2022/04/18 09:59:40;;;;;;;5.38;4.88;;;;;;;;;;5031427;28;20057;-62
2022/04/18 10:02:07;;;;;;;6.38;4.95;;;;;;;;;;5080814;28;20045;-64
2022/04/18 10:04:35;;;;;;;7.22;5.45;;;;;;;;;;5031608;28;20045;-63
2022/04/18 10:07:02;;;;;;;7.22;5.18;;;;;;;;;;5046761;28;20594;-63
2022/04/18 10:09:28;;;;;;;6.32;5.50;;;;;;;;;;5063110;28;20044;-63
2022/04/18 10:11:55;;;;;;;5.55;4.95;;;;;;;;;;5029888;28;20465;-63
2022/04/18 10:14:21;;;;;;;6.18;5.57;;;;;;;;;;5031747;28;20499;-64
2022/04/18 10:16:47;;;;;;;7.00;6.28;;;;;;;;;;5063031;28;20049;-63
2022/04/18 10:19:22;;;;;;;6.57;5.57;;;;;;;;;;5063256;28;20580;-64
2022/04/18 10:21:50;;;;;;;6.80;6.00;;;;;;;;;;5030846;28;20077;-63
2022/04/18 10:24:32;;;;;;;7.38;5.30;;;;;;;;;;5079704;28;20046;-63
2022/04/18 10:27:11;;;;;;;6.40;5.72;;;;;;;;;;5062980;28;20045;-64
2022/04/18 10:29:39;;;;;;;7.13;6.15;;;;;;;;;;5062577;28;20037;-62
2022/04/18 10:32:07;;;;;;;6.20;5.60;;;;;;;;;;5062660;28;20037;-63
2022/04/18 10:34:35;;;;;;;7.97;5.88;;;;;;;;;;5062785;28;20068;-63
2022/04/18 10:37:02;;;;;;;6.10;5.55;;;;;;;;;;5045848;28;20057;-64
2022/04/18 10:39:35;;;;;;;6.93;6.22;;;;;;;;;;5062648;28;20053;-63
2022/04/18 10:42:21;;;;;;;7.63;5.97;;;;;;;;;;5079251;28;20076;-64
2022/04/18 10:45:06;;;;;;;6.65;6.03;;;;;;;;;;5045878;28;20045;-62
2022/04/18 10:47:51;;;;;;;6.32;5.72;;;;;;;;;;5045262;28;20052;-63
2022/04/18 10:50:18;;;;;;;7.22;5.90;;;;;;;;;;5030303;28;20515;-63
2022/04/18 10:53:03;;;;;;;7.22;5.55;;;;;;;;;;5029662;28;20049;-62
2022/04/18 10:55:29;;;;;;;6.88;5.85;;;;;;;;;;5013089;28;20038;-63
2022/04/18 10:58:11;;;;;;;7.40;6.18;;;;;;;;;;5017487;28;20076;-63
2022/04/18 11:00:49;;;;;;;6.80;5.88;;;;;;;;;;5063036;28;20039;-64
2022/04/18 11:03:38;;;;;;;6.22;5.63;;;;;;;;;;5032510;28;20049;-63
2022/04/18 11:06:17;;;;;;;6.32;5.57;;;;;;;;;;5036203;28;20574;-63
2022/04/18 11:08:56;;;;;;;6.47;5.80;;;;;;;;;;5059982;28;20037;-62
2022/04/18 11:11:23;;;;;;;7.13;6.25;;;;;;;;;;5060963;28;20049;-63
2022/04/18 11:13:49;;;;;;;6.85;6.07;;;;;;;;;;5061152;28;20045;-62
2022/04/18 11:16:24;;;;;;;7.90;6.88;;;;;;;;;;5063597;28;20383;-64
2022/04/18 11:19:10;;;;;;;7.90;7.10;;;;;;;;;;5032384;28;20103;-63
2022/04/18 11:21:56;;;;;;;7.68;6.85;;;;;;;;;;5056470;28;20045;-63
2022/04/18 11:24:39;;;;;;;7.88;7.00;;;;;;;;;;5025909;28;20049;-63
2022/04/18 11:27:07;;;;;;;8.55;7.40;;;;;;;;;;5039650;28;20435;-63
2022/04/18 11:29:34;;;;;;;7.47;6.65;;;;;;;;;;5043664;28;20033;-63
2022/04/18 11:32:00;;;;;;;8.38;7.25;;;;;;;;;;5065715;28;20061;-63
2022/04/18 11:34:28;;;;;;;8.73;7.53;;;;;;;;;;5028175;28;20042;-62
2022/04/18 11:36:58;;;;;;;11.55;7.45;;;;;;;;;;5031482;28;20057;-63
2022/04/18 11:39:24;;;;;;;9.40;6.72;;;;;;;;;;5028249;28;20045;-64
2022/04/18 11:42:02;;;;;;;7.63;6.82;;;;;;;;;;5033544;28;20052;-62
2022/04/18 11:44:28;;;;;;;7.57;6.88;;;;;;;;;;5061401;28;20050;-62
2022/04/18 11:46:54;;;;;;;7.75;6.47;;;;;;;;;;5063077;28;20032;-64
2022/04/18 11:49:27;;;;;;;6.80;5.90;;;;;;;;;;5040097;28;20471;-63
2022/04/18 11:51:53;;;;;;;7.68;6.80;;;;;;;;;;5060484;28;20049;-62
2022/04/18 11:54:19;;;;;;;8.02;6.78;;;;;;;;;;5009885;28;20368;-62
2022/04/18 11:56:56;;;;;;;7.20;6.50;;;;;;;;;;5038506;28;20117;-63
2022/04/18 11:59:22;;;;;;;6.97;6.28;;;;;;;;;;5035040;28;20048;-62
2022/04/18 12:07:21;;;;;;;7.65;6.95;;;;;;;;;;5039440;28;20111;-61
2022/04/18 12:09:47;;;;;;;7.95;7.10;;;;;;;;;;5027964;28;20037;-61
2022/04/18 12:12:29;;;;;;;8.50;6.75;;;;;;;;;;5041281;28;20136;-62
2022/04/18 12:15:02;;;;;;;8.27;6.68;;;;;;;;;;5027085;28;20041;-63
2022/04/18 12:17:28;;;;;;;9.07;6.97;;;;;;;;;;5044482;28;20124;-64
2022/04/18 12:19:54;;;;;;;7.80;6.88;;;;;;;;;;5063498;28;20045;-64
2022/04/18 12:22:21;;;;;;;7.43;6.55;;;;;;;;;;5038556;28;20037;-63
2022/04/18 12:24:48;;;;;;;7.68;6.65;;;;;;;;;;5036994;28;20055;-64
2022/04/18 12:27:14;;;;;;;7.25;6.53;;;;;;;;;;5043703;28;20502;-62
2022/04/18 12:29:40;;;;;;;7.90;7.10;;;;;;;;;;5029078;28;20069;-63
2022/04/18 12:32:23;;;;;;;8.80;7.07;;;;;;;;;;5074820;28;20440;-63
2022/04/18 12:34:49;;;;;;;7.93;7.13;;;;;;;;;;5043870;28;20048;-63
2022/04/18 12:37:15;;;;;;;6.82;6.18;;;;;;;;;;5021289;28;20519;-63
2022/04/18 12:39:44;;;;;;;7.65;6.60;;;;;;;;;;5033802;28;20114;-65
2022/04/18 12:42:10;;;;;;;8.75;7.25;;;;;;;;;;5034394;28;20491;-64
2022/04/18 12:44:39;;;;;;;7.40;6.53;;;;;;;;;;5063249;28;21744;-64
2022/04/18 12:47:19;;;;;;;8.68;7.03;;;;;;;;;;5040030;28;20290;-64
2022/04/18 12:50:03;;;;;;;8.57;6.90;;;;;;;;;;5038015;28;20041;-63
2022/04/18 12:52:29;;;;;;;7.20;6.15;;;;;;;;;;5060163;28;20037;-63
2022/04/18 12:55:05;;;;;;;7.78;6.50;;;;;;;;;;5064086;28;20048;-62
2022/04/18 12:57:32;;;;;;;7.80;7.05;;;;;;;;;;5032133;28;20052;-64
2022/04/18 13:00:12;;;;;;;6.63;5.93;;;;;;;;;;5059361;28;20068;-63
2022/04/18 13:02:39;;;;;;;5.93;5.20;;;;;;;;;;5033080;28;20045;-62
2022/04/18 13:05:06;;;;;;;7.32;6.63;;;;;;;;;;5064554;28;20149;-65
2022/04/18 13:07:37;;;;;;;7.32;6.60;;;;;;;;;;5029819;28;20484;-63
2022/04/18 13:10:04;;;;;;;7.22;6.63;;;;;;;;;;5077563;28;20046;-64
2022/04/18 13:12:30;;;;;;;7.25;6.47;;;;;;;;;;5015102;28;20053;-64
2022/04/18 13:15:03;;;;;;;7.18;6.40;;;;;;;;;;5042828;28;20041;-64
2022/04/18 13:17:32;;;;;;;7.40;6.70;;;;;;;;;;5036121;28;21463;-63
2022/04/18 13:20:00;;;;;;;7.35;6.40;;;;;;;;;;5020433;28;20045;-63
2022/04/18 13:22:26;;;;;;;9.25;6.53;;;;;;;;;;5035869;28;20120;-63
2022/04/18 13:24:52;;;;;;;7.72;6.93;;;;;;;;;;5047556;28;20596;-64
2022/04/18 13:27:25;;;;;;;6.60;6.00;;;;;;;;;;5064411;28;20099;-63
2022/04/18 13:29:51;;;;;;;;;;;;;;;;;;5077606;28;20123;-63
2022/04/18 13:32:18;;;;;;;8.40;7.60;;;;;;;;;;5041268;28;20394;-64
2022/04/18 13:34:44;;;;;;;7.30;6.60;;;;;;;;;;5029742;28;20495;-63
2022/04/18 13:37:11;;;;;;;9.07;6.95;;;;;;;;;;5021587;28;20357;-63
2022/04/18 13:39:37;;;;;;;6.50;5.90;;;;;;;;;;5041191;28;20482;-63
2022/04/18 13:42:04;;;;;;;7.38;6.03;;;;;;;;;;5040231;28;20525;-63
2022/04/18 13:44:31;;;;;;;7.07;6.38;;;;;;;;;;5024919;28;20048;-63
2022/04/18 13:46:57;;;;;;;10.90;6.30;;;;;;;;;;5066699;28;20049;-62
2022/04/18 13:49:23;;;;;;;7.32;6.55;;;;;;;;;;5032815;28;20486;-63
2022/04/18 13:51:49;;;;;;;6.82;6.15;;;;;;;;;;5032325;28;20041;-63
2022/04/18 13:54:15;;;;;;;7.00;6.30;;;;;;;;;;5064023;28;20045;-62
2022/04/18 13:56:41;;;;;;;8.77;5.80;;;;;;;;;;5051085;28;20498;-62
2022/04/18 13:59:07;;;;;;;7.28;6.57;;;;;;;;;;5044328;28;20155;-63
2022/04/18 14:01:33;;;;;;;6.95;6.25;;;;;;;;;;5055245;28;20054;-64
2022/04/18 14:04:00;;;;;;;6.63;6.03;;;;;;;;;;5011550;28;20440;-62
2022/04/18 14:06:27;;;;;;;6.78;5.93;;;;;;;;;;5041208;28;20034;-61
2022/04/18 14:08:53;;;;;;;6.53;5.53;;;;;;;;;;5060121;28;20056;-62
2022/04/18 14:11:19;;;;;;;6.55;5.82;;;;;;;;;;5042244;28;20128;-61
2022/04/18 14:13:45;;;;;;;7.07;6.30;;;;;;;;;;5052019;28;20037;-61
2022/04/18 14:21:43;;;;;;;8.93;5.97;;;;;;;;;;5039073;28;20411;-62
2022/04/18 14:24:09;;;;;;;6.60;5.63;;;;;;;;;;5043986;28;20041;-62
2022/04/18 14:26:35;;;;;;;8.40;6.72;;;;;;;;;;5064567;28;20106;-61
2022/04/18 14:29:02;;;;;;;6.85;6.15;;;;;;;;;;5047771;28;20063;-62
2022/04/18 14:31:29;;;;;;;6.65;5.93;;;;;;;;;;5042254;28;20029;-61
2022/04/18 14:33:55;;;;;;;5.80;4.80;;;;;;;;;;5036320;28;20049;-62
2022/04/18 14:36:22;;;;;;;7.45;5.63;;;;;;;;;;5050910;28;20136;-60
2022/04/18 14:38:48;;;;;;;5.65;5.15;;;;;;;;;;5046796;28;20048;-62
2022/04/18 14:41:14;;;;;;;7.40;5.70;;;;;;;;;;5061488;28;20448;-61
2022/04/18 14:43:40;;;;;;;6.40;5.75;;;;;;;;;;5040072;28;20049;-61
2022/04/18 14:46:06;;;;;;;6.15;5.55;;;;;;;;;;5036777;28;20120;-61
2022/04/18 14:48:32;;;;;;;6.53;5.88;;;;;;;;;;5062190;28;20045;-62
2022/04/18 14:50:59;;;;;;;6.90;5.45;;;;;;;;;;5040987;28;20043;-61
2022/04/18 14:53:25;;;;;;;7.68;5.78;;;;;;;;;;5062851;28;20052;-62
2022/04/18 14:55:51;;;;;;;5.88;5.28;;;;;;;;;;5036937;28;20049;-62
2022/04/18 14:58:17;;;;;;;6.20;5.55;;;;;;;;;;5040029;28;20049;-62
2022/04/18 15:00:44;;;;;;;6.45;4.93;;;;;;;;;;5060699;28;20494;-61
2022/04/18 15:03:10;;;;;;;6.22;5.60;;;;;;;;;;5047287;28;20038;-63
2022/04/18 15:05:36;;;;;;;7.00;5.40;;;;;;;;;;5061774;28;20045;-62
2022/04/18 15:08:03;;;;;;;7.30;5.10;;;;;;;;;;5044272;28;20037;-62
2022/04/18 15:10:29;;;;;;;5.82;5.22;;;;;;;;;;5061348;28;20475;-62